createdAt,value
2023-03-21T00:00:05.929Z,11.77
2023-03-21T00:02:33.800Z,13.10
2023-03-21T00:05:13.400Z,15.80
2023-03-21T00:07:44.731Z,14.03
2023-03-21T00:10:18.125Z,10.97
2023-03-21T00:12:58.416Z,12.70
2023-03-21T00:15:39.961Z,11.97
2023-03-21T00:18:12.076Z,10.57
2023-03-21T00:20:39.780Z,14.33
2023-03-21T00:23:09.096Z,12.03
2023-03-21T00:25:37.233Z,10.43
2023-03-21T00:28:08.534Z,12.20
2023-03-21T00:30:36.694Z,12.87
2023-03-21T00:33:15.860Z,9.63
2023-03-21T00:36:01.766Z,10.53
2023-03-21T00:38:36.856Z,11.93
2023-03-21T00:41:18.901Z,14.70
2023-03-21T00:43:55.433Z,16.13
2023-03-21T00:46:27.530Z,11.27
2023-03-21T00:48:57.779Z,10.63
2023-03-21T00:51:27.204Z,11.63
2023-03-21T00:53:58.398Z,10.37
2023-03-21T00:56:29.186Z,15.60
2023-03-21T00:58:56.898Z,16.73
2023-03-21T01:01:26.475Z,16.03
2023-03-21T01:04:03.462Z,17.20
2023-03-21T01:06:32.957Z,17.67
2023-03-21T01:09:02.304Z,14.77
2023-03-21T01:11:30.151Z,17.50
2023-03-21T01:14:14.696Z,17.50
2023-03-21T01:16:46.785Z,15.87
2023-03-21T01:19:25.135Z,13.77
2023-03-21T01:21:54.293Z,12.23
2023-03-21T01:24:24.058Z,16.00
2023-03-21T01:26:52.079Z,14.00
2023-03-21T01:29:19.978Z,15.57
2023-03-21T01:31:48.184Z,11.77
2023-03-21T01:34:16.504Z,16.20
2023-03-21T01:36:44.792Z,18.67
2023-03-21T01:39:17.543Z,18.70
2023-03-21T01:41:49.524Z,13.03
2023-03-21T01:44:23.339Z,15.57
2023-03-21T01:47:07.643Z,14.83
2023-03-21T01:49:50.653Z,14.40
2023-03-21T01:52:36.004Z,15.80
2023-03-21T01:55:11.980Z,15.20
2023-03-21T01:58:04.894Z,14.57
2023-03-21T02:00:54.001Z,14.87
2023-03-21T02:03:50.856Z,13.03
2023-03-21T02:06:31.796Z,15.20
2023-03-21T02:09:10.900Z,16.73
2023-03-21T02:11:39.439Z,20.10
2023-03-21T02:14:26.693Z,16.03
2023-03-21T02:17:08.866Z,15.23
2023-03-21T02:20:26.539Z,18.60
2023-03-21T02:23:25.389Z,18.77
2023-03-21T02:26:33.355Z,16.63
2023-03-21T02:29:31.771Z,21.40
2023-03-21T02:32:17.871Z,19.73
2023-03-21T02:35:26.042Z,16.60
2023-03-21T02:38:01.420Z,16.53
2023-03-21T02:40:36.673Z,17.20
2023-03-21T02:43:20.795Z,14.00
2023-03-21T02:45:54.967Z,17.50
2023-03-21T02:48:35.347Z,15.50
2023-03-21T02:51:11.908Z,16.23
2023-03-21T02:53:50.588Z,14.13
2023-03-21T02:56:23.171Z,12.77
2023-03-21T02:58:55.661Z,16.07
2023-03-21T03:01:26.117Z,16.63
2023-03-21T03:03:54.336Z,16.17
2023-03-21T03:06:27.676Z,16.47
2023-03-21T03:09:18.980Z,15.47
2023-03-21T03:11:51.980Z,16.23
2023-03-21T03:14:49.895Z,15.77
2023-03-21T03:17:30.389Z,18.13
2023-03-21T03:20:20.308Z,13.50
2023-03-21T03:22:58.285Z,17.43
2023-03-21T03:25:42.391Z,15.77
2023-03-21T03:28:17.894Z,17.33
2023-03-21T03:31:01.138Z,21.47
2023-03-21T03:33:41.458Z,21.77
2023-03-21T03:36:18.803Z,15.80
2023-03-21T03:38:53.240Z,15.17
2023-03-21T03:41:26.960Z,13.93
2023-03-21T03:44:02.434Z,19.00
2023-03-21T03:46:41.239Z,17.87
2023-03-21T03:49:13.122Z,18.60
2023-03-21T03:51:49.851Z,12.80
2023-03-21T03:54:30.764Z,13.50
2023-03-21T03:57:01.337Z,16.73
2023-03-21T03:59:29.411Z,14.03
2023-03-21T04:02:13.238Z,17.03
2023-03-21T04:04:41.983Z,16.73
2023-03-21T04:07:10.485Z,14.87
2023-03-21T04:09:44.585Z,18.47
2023-03-21T04:12:16.733Z,15.57
2023-03-21T04:15:09.567Z,16.90
2023-03-21T04:17:40.524Z,12.33
2023-03-21T04:20:14.983Z,14.67
2023-03-21T04:22:46.642Z,13.73
2023-03-21T04:25:27.395Z,16.27
2023-03-21T04:28:02.342Z,17.47
2023-03-21T04:30:39.875Z,14.43
2023-03-21T04:33:14.200Z,12.23
2023-03-21T04:35:50.492Z,15.90
2023-03-21T04:38:19.504Z,13.70
2023-03-21T04:40:47.218Z,13.73
2023-03-21T04:43:16.646Z,15.33
2023-03-21T04:45:44.515Z,15.73
2023-03-21T04:48:14.305Z,15.33
2023-03-21T04:50:42.221Z,14.17
2023-03-21T04:53:10.993Z,16.17
2023-03-21T04:55:39.175Z,15.57
2023-03-21T04:58:07.615Z,17.07
2023-03-21T05:00:38.463Z,12.80
2023-03-21T05:03:09.011Z,16.67
2023-03-21T05:05:38.577Z,15.37
2023-03-21T05:08:07.374Z,16.10
2023-03-21T05:10:35.141Z,16.67
2023-03-21T05:13:03.551Z,15.70
2023-03-21T05:15:31.503Z,15.30
2023-03-21T05:18:11.592Z,13.70
2023-03-21T05:20:55.352Z,14.60
2023-03-21T05:23:25.481Z,15.43
2023-03-21T05:25:53.324Z,16.60
2023-03-21T05:28:36.891Z,12.43
2023-03-21T05:31:05.902Z,17.73
2023-03-21T05:33:35.578Z,14.90
2023-03-21T05:36:03.408Z,18.53
2023-03-21T05:38:33.330Z,14.20
2023-03-21T05:41:01.442Z,14.47
2023-03-21T05:43:31.160Z,16.17
2023-03-21T05:46:00.859Z,15.50
2023-03-21T05:48:31.416Z,13.67
2023-03-21T05:51:14.689Z,13.80
2023-03-21T05:53:42.843Z,14.00
2023-03-21T05:56:11.817Z,15.63
2023-03-21T05:58:46.502Z,23.10
2023-03-21T06:01:14.781Z,17.47
2023-03-21T06:03:48.875Z,16.70
2023-03-21T06:06:20.286Z,13.33
2023-03-21T06:08:54.521Z,12.53
2023-03-21T06:11:27.339Z,16.57
2023-03-21T06:14:16.294Z,14.17
2023-03-21T06:16:45.698Z,14.40
2023-03-21T06:19:14.155Z,12.90
2023-03-21T06:22:03.712Z,13.40
2023-03-21T06:24:32.927Z,16.40
2023-03-21T06:27:03.508Z,15.93
2023-03-21T06:29:41.515Z,11.47
2023-03-21T06:32:09.306Z,14.93
2023-03-21T06:34:39.378Z,16.53
2023-03-21T06:37:09.029Z,18.57
2023-03-21T06:39:38.042Z,12.00
2023-03-21T06:42:06.160Z,21.33
2023-03-21T06:44:34.015Z,18.07
2023-03-21T06:47:06.983Z,14.57
2023-03-21T06:49:35.445Z,11.73
2023-03-21T06:52:10.346Z,13.77
2023-03-21T06:54:39.133Z,14.27
2023-03-21T06:57:13.532Z,17.27
2023-03-21T06:59:42.619Z,14.67
2023-03-21T07:02:15.131Z,16.57
2023-03-21T07:04:49.280Z,17.77
2023-03-21T07:07:26.013Z,15.53
2023-03-21T07:09:53.932Z,19.03
2023-03-21T07:12:23.060Z,16.90
2023-03-21T07:15:11.041Z,17.23
2023-03-21T07:17:40.719Z,14.20
2023-03-21T07:20:09.172Z,14.27
2023-03-21T07:22:38.527Z,13.43
2023-03-21T07:25:07.728Z,14.77
2023-03-21T07:27:42.144Z,12.17
2023-03-21T07:30:12.136Z,15.70
2023-03-21T07:32:40.534Z,16.93
2023-03-21T07:35:11.765Z,17.03
2023-03-21T07:37:41.602Z,14.90
2023-03-21T07:40:13.255Z,13.47
2023-03-21T07:42:42.345Z,17.03
2023-03-21T07:45:16.627Z,15.47
2023-03-21T07:47:47.063Z,11.57
2023-03-21T07:50:15.944Z,17.70
2023-03-21T07:52:45.392Z,13.67
2023-03-21T07:55:13.419Z,10.80
2023-03-21T07:57:41.613Z,13.37
2023-03-21T08:00:10.821Z,13.73
2023-03-21T08:02:43.211Z,13.03
2023-03-21T08:05:12.048Z,11.40
2023-03-21T08:07:40.122Z,15.07
2023-03-21T08:10:11.875Z,14.60
2023-03-21T08:12:39.753Z,10.53
2023-03-21T08:15:08.893Z,11.43
2023-03-21T08:17:38.123Z,8.80
2023-03-21T08:20:09.100Z,13.80
2023-03-21T08:22:37.696Z,12.83
2023-03-21T08:25:08.565Z,17.33
2023-03-21T08:27:38.012Z,16.37
2023-03-21T08:30:06.647Z,12.37
2023-03-21T08:32:34.803Z,13.27
2023-03-21T08:35:04.150Z,11.83
2023-03-21T08:37:31.956Z,15.97
2023-03-21T08:40:00.103Z,14.00
2023-03-21T08:42:27.961Z,16.67
2023-03-21T08:44:57.147Z,12.23
2023-03-21T08:47:24.888Z,11.70
2023-03-21T08:49:52.793Z,15.07
2023-03-21T08:52:20.933Z,14.63
2023-03-21T08:54:48.763Z,19.07
2023-03-21T08:57:16.965Z,15.87
2023-03-21T08:59:44.808Z,15.83
2023-03-21T09:02:15.026Z,14.43
2023-03-21T09:04:43.926Z,13.10
2023-03-21T09:07:14.285Z,14.37
2023-03-21T09:09:42.783Z,16.60
2023-03-21T09:12:10.957Z,15.93
2023-03-21T09:14:38.708Z,15.40
2023-03-21T09:17:06.704Z,16.23
2023-03-21T09:19:35.971Z,16.43
2023-03-21T09:22:03.749Z,15.43
2023-03-21T09:24:31.734Z,13.50
2023-03-21T09:26:59.544Z,16.60
2023-03-21T09:29:27.596Z,15.40
2023-03-21T09:31:55.416Z,11.60
2023-03-21T09:34:23.537Z,18.17
2023-03-21T09:36:56.519Z,14.47
2023-03-21T09:39:24.728Z,17.60
2023-03-21T09:42:06.424Z,17.97
2023-03-21T09:44:52.803Z,15.37
2023-03-21T09:47:25.151Z,16.53
2023-03-21T09:50:13.099Z,19.17
2023-03-21T09:52:49.603Z,16.50
2023-03-21T09:55:21.342Z,17.60
2023-03-21T09:57:53.034Z,17.80
2023-03-21T10:00:29.584Z,18.30
2023-03-21T10:03:01.679Z,16.03
2023-03-21T10:05:32.641Z,17.17
2023-03-21T10:08:05.575Z,15.33
2023-03-21T10:10:36.251Z,13.93
2023-03-21T10:13:11.592Z,14.97
2023-03-21T10:15:39.662Z,17.83
2023-03-21T10:18:09.477Z,16.83
2023-03-21T10:20:40.124Z,16.67
2023-03-21T10:23:14.381Z,19.23
2023-03-21T10:25:44.254Z,16.77
2023-03-21T10:28:17.512Z,19.60
2023-03-21T10:30:47.524Z,18.70
2023-03-21T10:33:17.741Z,18.37
2023-03-21T10:35:50.623Z,18.00
2023-03-21T10:38:22.353Z,17.63
2023-03-21T10:40:50.223Z,18.03
2023-03-21T10:43:30.905Z,22.33
2023-03-21T10:45:59.067Z,19.00
2023-03-21T10:48:27.054Z,20.90
2023-03-21T10:50:56.367Z,12.40
2023-03-21T10:53:36.287Z,21.53
2023-03-21T10:56:07.797Z,17.97
2023-03-21T10:58:39.783Z,18.93
2023-03-21T11:01:14.875Z,19.03
2023-03-21T11:03:46.968Z,14.60
2023-03-21T11:06:23.875Z,17.20
2023-03-21T11:08:57.872Z,21.20
2023-03-21T11:11:28.546Z,12.77
2023-03-21T11:14:01.602Z,17.60
2023-03-21T11:16:37.566Z,14.37
2023-03-21T11:19:16.046Z,15.73
2023-03-21T11:21:44.572Z,14.57
2023-03-21T11:24:17.278Z,15.93
2023-03-21T11:26:48.224Z,12.73
2023-03-21T11:29:28.316Z,12.40
2023-03-21T11:32:02.265Z,11.97
2023-03-21T11:34:35.001Z,13.90
2023-03-21T11:37:04.268Z,14.33
2023-03-21T11:39:37.629Z,15.13
2023-03-21T11:42:06.804Z,14.53
2023-03-21T11:44:36.972Z,13.77
2023-03-21T11:47:04.932Z,17.57
2023-03-21T11:49:32.711Z,11.33
2023-03-21T11:52:16.311Z,10.30
2023-03-21T11:55:04.989Z,10.43
2023-03-21T11:57:45.190Z,10.47
2023-03-21T12:00:20.703Z,11.27
2023-03-21T12:03:05.610Z,10.93
2023-03-21T12:05:36.897Z,10.67
2023-03-21T12:08:19.645Z,8.60
2023-03-21T12:10:57.120Z,6.33
2023-03-21T12:13:38.868Z,13.53
2023-03-21T12:16:21.413Z,10.23
2023-03-21T12:19:05.982Z,11.63
2023-03-21T12:21:40.278Z,11.07
2023-03-21T12:24:15.954Z,9.57
2023-03-21T12:26:58.800Z,8.17
2023-03-21T12:29:37.785Z,8.33
2023-03-21T12:32:16.950Z,14.10
2023-03-21T12:35:03.597Z,9.50
2023-03-21T12:37:38.245Z,8.73
2023-03-21T12:40:14.526Z,10.83
2023-03-21T12:43:01.138Z,9.43
2023-03-21T12:45:45.725Z,12.83
2023-03-21T12:48:22.154Z,11.43
2023-03-21T12:50:52.396Z,10.03
2023-03-21T12:53:35.987Z,8.87
2023-03-21T12:56:08.627Z,9.93
2023-03-21T12:58:48.728Z,11.27
2023-03-21T13:01:19.085Z,8.83
2023-03-21T13:03:52.701Z,9.57
2023-03-21T13:06:25.517Z,9.63
2023-03-21T13:08:59.370Z,14.23
2023-03-21T13:11:31.460Z,10.57
2023-03-21T13:14:05.368Z,9.03
2023-03-21T13:16:39.033Z,9.87
2023-03-21T13:19:17.821Z,8.23
2023-03-21T13:21:52.924Z,7.90
2023-03-21T13:24:28.126Z,9.17
2023-03-21T13:27:06.805Z,8.87
2023-03-21T13:29:45.978Z,10.87
2023-03-21T13:32:22.497Z,7.30
2023-03-21T13:34:56.729Z,10.03
2023-03-21T13:37:28.074Z,6.63
2023-03-21T13:40:02.212Z,8.70
2023-03-21T13:42:33.689Z,8.93
2023-03-21T13:45:10.614Z,9.50
2023-03-21T13:47:43.994Z,7.40
2023-03-21T13:50:52.486Z,9.17
2023-03-21T13:53:32.001Z,8.30
2023-03-21T13:56:16.158Z,7.03
2023-03-21T13:58:53.611Z,8.33
2023-03-21T14:01:34.943Z,10.70
2023-03-21T14:04:12.534Z,8.60
2023-03-21T14:06:45.795Z,6.60
2023-03-21T14:09:21.669Z,7.83
2023-03-21T14:11:54.646Z,8.20
2023-03-21T14:14:27.950Z,8.73
2023-03-21T14:16:57.099Z,9.57
2023-03-21T14:19:30.955Z,6.70
2023-03-21T14:22:00.230Z,9.20
2023-03-21T14:24:28.035Z,7.63
2023-03-21T14:26:56.939Z,8.97
2023-03-21T14:29:27.807Z,10.60
2023-03-21T14:32:00.131Z,9.70
2023-03-21T14:34:29.629Z,7.43
2023-03-21T14:36:59.239Z,10.80
2023-03-21T14:39:29.505Z,7.50
2023-03-21T14:42:03.300Z,9.30
2023-03-21T14:44:44.131Z,7.40
2023-03-21T14:47:23.226Z,10.53
2023-03-21T14:49:52.246Z,11.80
2023-03-21T14:52:25.272Z,7.87
2023-03-21T14:54:54.304Z,9.60
2023-03-21T14:57:25.055Z,8.70
2023-03-21T14:59:56.107Z,9.67
2023-03-21T15:02:29.289Z,9.77
2023-03-21T15:04:59.495Z,9.60
2023-03-21T15:07:29.710Z,8.00
2023-03-21T15:10:00.918Z,8.53
2023-03-21T15:12:28.936Z,7.10
2023-03-21T15:14:57.485Z,9.57
2023-03-21T15:17:28.153Z,8.40
2023-03-21T15:19:56.182Z,8.03
2023-03-21T15:22:31.761Z,8.17
2023-03-21T15:25:02.438Z,7.17
2023-03-21T15:27:33.646Z,8.53
2023-03-21T15:30:01.590Z,7.97
2023-03-21T15:32:31.123Z,8.50
2023-03-21T15:35:07.455Z,7.17
2023-03-21T15:37:38.206Z,9.80
2023-03-21T15:40:20.952Z,7.73
2023-03-21T15:42:48.738Z,9.67
2023-03-21T15:45:22.358Z,7.40
2023-03-21T15:48:00.576Z,7.97
2023-03-21T15:50:35.015Z,7.23
2023-03-21T15:53:06.193Z,8.43
2023-03-21T15:55:40.236Z,11.17
2023-03-21T15:58:16.243Z,7.37
2023-03-21T16:00:48.849Z,10.63
2023-03-21T16:03:22.709Z,9.53
2023-03-21T16:06:10.854Z,9.40
2023-03-21T16:08:46.101Z,6.73
2023-03-21T16:11:18.624Z,6.57
2023-03-21T16:13:47.091Z,7.53
2023-03-21T16:16:18.074Z,9.63
2023-03-21T16:18:47.757Z,6.90
2023-03-21T16:21:17.295Z,9.13
2023-03-21T16:23:45.722Z,7.53
2023-03-21T16:26:16.436Z,8.50
2023-03-21T16:28:44.880Z,9.13
2023-03-21T16:31:16.428Z,8.17
2023-03-21T16:33:44.949Z,15.77
2023-03-21T16:36:17.889Z,13.17
2023-03-21T16:38:46.374Z,11.40
2023-03-21T16:41:15.782Z,8.53
2023-03-21T16:43:44.001Z,9.37
2023-03-21T16:46:14.618Z,7.30
2023-03-21T16:48:43.501Z,9.90
2023-03-21T16:51:15.330Z,8.67
2023-03-21T16:53:43.355Z,7.63
2023-03-21T16:56:16.179Z,6.80
2023-03-21T16:58:44.855Z,11.17
2023-03-21T17:01:15.639Z,7.60
2023-03-21T17:03:43.932Z,7.67
2023-03-21T17:06:17.112Z,7.23
2023-03-21T17:08:45.434Z,7.57
2023-03-21T17:11:16.449Z,6.10
2023-03-21T17:13:44.723Z,7.70
2023-03-21T17:16:13.475Z,11.90
2023-03-21T17:18:41.858Z,8.77
2023-03-21T17:21:14.442Z,9.10
2023-03-21T17:23:44.156Z,7.77
2023-03-21T17:26:14.355Z,17.30
2023-03-21T17:28:42.478Z,13.00
2023-03-21T17:31:14.725Z,6.40
2023-03-21T17:33:42.895Z,9.73
2023-03-21T17:36:14.975Z,9.90
2023-03-21T17:38:45.837Z,6.77
2023-03-21T17:41:15.483Z,4.83
2023-03-21T17:43:43.457Z,6.37
2023-03-21T17:46:14.241Z,9.50
2023-03-21T17:48:42.378Z,5.77
2023-03-21T17:51:13.039Z,8.57
2023-03-21T17:53:41.032Z,10.47
2023-03-21T17:56:15.288Z,11.33
2023-03-21T17:58:43.184Z,10.20
2023-03-21T18:01:10.967Z,7.10
2023-03-21T18:03:38.829Z,9.53
2023-03-21T18:06:07.662Z,7.67
2023-03-21T18:08:35.985Z,10.40
2023-03-21T18:11:03.914Z,6.53
2023-03-21T18:13:33.100Z,9.93
2023-03-21T18:16:00.957Z,7.67
2023-03-21T18:18:28.891Z,8.67
2023-03-21T18:20:58.499Z,10.27
2023-03-21T18:23:26.798Z,6.27
2023-03-21T18:25:54.913Z,7.00
2023-03-21T18:28:22.947Z,8.10
2023-03-21T18:31:14.259Z,11.63
2023-03-21T18:33:42.046Z,8.37
2023-03-21T18:36:13.884Z,10.13
2023-03-21T18:38:42.283Z,8.00
2023-03-21T18:41:10.811Z,6.17
2023-03-21T18:46:30.436Z,9.37
2023-03-21T18:48:58.356Z,12.47
2023-03-21T18:51:26.324Z,9.33
2023-03-21T18:53:54.612Z,9.37
2023-03-21T18:57:13.184Z,6.50
2023-03-21T18:59:10.302Z,7.77
2023-03-21T19:01:39.621Z,7.13
2023-03-21T19:04:29.795Z,7.23
2023-03-21T19:06:55.490Z,8.10
2023-03-21T19:09:29.565Z,6.10
2023-03-21T19:11:59.688Z,8.57
2023-03-21T19:14:28.338Z,7.90
2023-03-21T19:17:53.456Z,9.40
2023-03-21T19:19:47.828Z,6.93
2023-03-21T19:22:15.924Z,8.17
2023-03-21T19:24:43.701Z,8.17
2023-03-21T19:27:13.283Z,7.37
2023-03-21T19:29:41.358Z,7.67
2023-03-21T19:32:10.655Z,8.17
2023-03-21T19:34:38.934Z,9.13
2023-03-21T19:37:07.074Z,9.67
2023-03-21T19:39:35.027Z,10.00
2023-03-21T19:42:16.027Z,6.67
2023-03-21T19:44:45.719Z,8.60
2023-03-21T19:47:15.137Z,7.37
2023-03-21T19:50:30.737Z,8.87
2023-03-21T19:52:31.840Z,12.20
2023-03-21T19:54:59.949Z,8.80
2023-03-21T19:57:27.892Z,8.43
2023-03-21T19:59:55.636Z,7.90
2023-03-21T20:02:35.618Z,8.27
2023-03-21T20:05:04.748Z,8.20
2023-03-21T20:07:32.970Z,10.40
2023-03-21T20:10:01.463Z,8.20
2023-03-21T20:12:29.784Z,8.60
2023-03-21T20:15:09.580Z,8.80
2023-03-21T20:17:41.372Z,8.87
2023-03-21T20:20:15.378Z,9.17
2023-03-21T20:23:05.817Z,8.10
2023-03-21T20:25:33.217Z,8.67
2023-03-21T20:28:15.264Z,11.20
2023-03-21T20:30:49.340Z,9.83
2023-03-21T20:33:18.696Z,9.17
2023-03-21T20:36:32.247Z,9.13
2023-03-21T20:38:35.744Z,8.60
2023-03-21T20:41:05.465Z,10.03
2023-03-21T20:46:21.313Z,10.73
2023-03-21T20:48:50.646Z,10.90
2023-03-21T20:52:18.579Z,8.30
2023-03-21T20:54:06.699Z,10.07
2023-03-21T20:56:34.836Z,8.60
2023-03-21T20:59:17.289Z,7.47
2023-03-21T21:01:45.585Z,8.00
2023-03-21T21:04:19.806Z,10.47
2023-03-21T21:06:48.061Z,9.70
2023-03-21T21:09:15.972Z,9.80
2023-03-21T21:14:32.036Z,14.30
2023-03-21T21:17:04.931Z,15.67
2023-03-21T21:19:43.470Z,14.00
2023-03-21T21:22:11.212Z,11.40
2023-03-21T21:24:39.200Z,11.20
2023-03-21T21:27:07.002Z,10.77
2023-03-21T21:29:34.810Z,11.27
2023-03-21T21:32:05.182Z,9.37
2023-03-21T21:34:33.431Z,10.97
2023-03-21T21:37:03.071Z,8.93
2023-03-21T21:39:31.513Z,10.97
2023-03-21T21:41:59.288Z,13.13
2023-03-21T21:44:27.403Z,11.60
2023-03-21T21:46:55.334Z,11.33
2023-03-21T21:49:23.171Z,14.60
2023-03-21T21:51:50.962Z,10.67
2023-03-21T21:54:20.100Z,11.77
2023-03-21T21:56:48.671Z,13.07
2023-03-21T21:59:17.181Z,12.07
2023-03-21T22:01:46.616Z,9.80
2023-03-21T22:04:15.376Z,12.57
2023-03-21T22:06:44.018Z,9.30
2023-03-21T22:09:12.105Z,11.50
2023-03-21T22:11:41.785Z,9.93
2023-03-21T22:14:09.607Z,10.97
2023-03-21T22:16:37.590Z,10.00
2023-03-21T22:19:05.405Z,9.07
2023-03-21T22:21:33.266Z,12.97
2023-03-21T22:24:01.401Z,7.87
2023-03-21T22:26:29.467Z,11.13
2023-03-21T22:28:59.945Z,6.57
2023-03-21T22:31:27.813Z,7.33
2023-03-21T22:33:55.999Z,9.50
2023-03-21T22:36:23.807Z,7.53
2023-03-21T22:38:51.590Z,7.73
2023-03-21T22:41:19.325Z,6.67
2023-03-21T22:43:47.471Z,6.33
2023-03-21T22:46:16.853Z,8.43
2023-03-21T22:48:44.672Z,7.90
2023-03-21T22:51:12.898Z,7.77
2023-03-21T22:53:40.893Z,7.70
2023-03-21T22:56:10.105Z,8.83
2023-03-21T22:58:37.838Z,6.67
2023-03-21T23:01:06.194Z,7.90
2023-03-21T23:03:35.414Z,6.93
2023-03-21T23:06:03.614Z,6.97
2023-03-21T23:08:31.798Z,7.67
2023-03-21T23:10:59.578Z,7.77
2023-03-21T23:13:27.970Z,9.03
2023-03-21T23:15:56.231Z,9.03
2023-03-21T23:18:24.025Z,11.20
2023-03-21T23:20:53.589Z,8.13
2023-03-21T23:23:21.546Z,9.07
2023-03-21T23:25:49.412Z,8.20
2023-03-21T23:28:17.179Z,11.07
2023-03-21T23:30:44.981Z,7.37
2023-03-21T23:33:12.797Z,11.23
2023-03-21T23:35:40.844Z,9.03
2023-03-21T23:38:10.068Z,7.13
2023-03-21T23:40:39.861Z,7.87
2023-03-21T23:43:07.823Z,7.90
2023-03-21T23:45:35.582Z,9.50
2023-03-21T23:48:03.857Z,9.87
2023-03-21T23:50:31.921Z,11.07
2023-03-21T23:52:59.698Z,6.87
2023-03-21T23:55:28.935Z,9.43
2023-03-21T23:57:58.969Z,9.83
